Time,TemperatureF,DewpointF,PressureIn,WindDirection,WindDirectionDegrees,WindSpeedMPH,WindSpeedGustMPH,Humidity,HourlyPrecipIn,Conditions,Clouds,dailyrainin,SoftwareType,DateUTC
2013-04-12 00:00:00,42.8,31.5,30.16,NE,45,1.3,2.7,64,0.00,,,0.12,WUHU216HW,2013-04-12 04:00:00,
2013-04-12 00:05:00,42.8,31.5,30.16,NNE,23,0.7,2.7,64,0.00,,,0.00,WUHU216HW,2013-04-12 04:05:00,
2013-04-12 00:10:00,42.8,31.9,30.17,North,0,1.1,1.6,65,0.00,,,0.00,WUHU216HW,2013-04-12 04:10:00,
2013-04-12 00:15:00,42.8,32.2,30.16,NNE,23,2.2,3.8,66,0.00,,,0.00,WUHU216HW,2013-04-12 04:15:00,
2013-04-12 00:20:00,42.7,32.5,30.16,NE,45,2.2,3.8,67,0.00,,,0.00,WUHU216HW,2013-04-12 04:20:00,
2013-04-12 00:25:00,42.7,32.5,30.16,NNW,338,1.1,2.7,67,0.00,,,0.00,WUHU216HW,2013-04-12 04:25:00,
2013-04-12 00:30:00,42.7,32.5,30.16,North,0,0.4,2.5,67,0.00,,,0.00,WUHU216HW,2013-04-12 04:30:00,
2013-04-12 00:35:00,42.7,32.5,30.16,North,0,1.8,2.5,67,0.00,,,0.00,WUHU216HW,2013-04-12 04:35:00,
2013-04-12 00:40:00,42.7,32.5,30.17,North,0,0.4,2.2,67,0.00,,,0.00,WUHU216HW,2013-04-12 04:40:00,
2013-04-12 00:45:00,42.7,32.5,30.16,NE,45,1.3,4.7,67,0.00,,,0.00,WUHU216HW,2013-04-12 04:45:00,
2013-04-12 00:50:00,42.5,32.3,30.16,NE,45,1.1,4.7,67,0.00,,,0.00,WUHU216HW,2013-04-12 04:50:00,
2013-04-12 00:55:00,42.5,32.3,30.16,NNE,23,0.7,2.5,67,0.00,,,0.00,WUHU216HW,2013-04-12 04:55:00,
2013-04-12 01:00:00,42.5,32.7,30.16,North,0,0.9,2.5,68,0.00,,,0.00,WUHU216HW,2013-04-12 05:00:00,
2013-04-12 01:05:00,42.5,32.3,30.17,North,0,1.1,2.9,67,0.00,,,0.00,WUHU216HW,2013-04-12 05:05:00,
2013-04-12 01:10:00,42.5,32.3,30.17,NE,45,2.2,2.9,67,0.00,,,0.00,WUHU216HW,2013-04-12 05:10:00,
2013-04-12 01:15:00,42.5,32.3,30.17,North,0,1.1,3.8,67,0.00,,,0.00,WUHU216HW,2013-04-12 05:15:00,
2013-04-12 01:20:00,42.3,32.1,30.16,NE,45,1.8,3.8,67,0.00,,,0.00,WUHU216HW,2013-04-12 05:20:00,
2013-04-12 01:25:00,42.3,31.8,30.16,North,0,1.6,4.9,66,0.00,,,0.00,WUHU216HW,2013-04-12 05:25:00,
2013-04-12 01:30:00,42.3,31.8,30.16,NNE,23,2.0,4.9,66,0.00,,,0.00,WUHU216HW,2013-04-12 05:30:00,
2013-04-12 01:35:00,42.3,31.8,30.17,NNE,23,1.8,4.5,66,0.00,,,0.00,WUHU216HW,2013-04-12 05:35:00,
2013-04-12 01:40:00,42.3,31.3,30.16,North,0,2.9,5.4,65,0.00,,,0.00,WUHU216HW,2013-04-12 05:40:00,
2013-04-12 01:45:00,42.3,31.3,30.16,NNE,23,2.7,5.4,65,0.00,,,0.00,WUHU216HW,2013-04-12 05:45:00,
2013-04-12 01:50:00,42.3,30.6,30.16,NNE,23,4.0,8.5,63,0.00,,,0.00,WUHU216HW,2013-04-12 05:50:00,
2013-04-12 01:55:00,42.5,30.3,30.17,NNE,23,4.0,8.5,62,0.00,,,0.00,WUHU216HW,2013-04-12 05:55:00,
2013-04-12 02:00:00,42.5,30.0,30.16,ENE,68,3.6,5.6,61,0.00,,,0.00,WUHU216HW,2013-04-12 06:00:00,
2013-04-12 02:05:00,42.5,29.5,30.16,NE,45,2.5,5.1,60,0.00,,,0.00,WUHU216HW,2013-04-12 06:05:00,
2013-04-12 02:10:00,42.5,28.7,30.16,NNE,23,2.0,5.6,58,0.00,,,0.00,WUHU216HW,2013-04-12 06:10:00,
2013-04-12 02:15:00,42.5,28.7,30.16,East,90,1.3,5.6,58,0.00,,,0.00,WUHU216HW,2013-04-12 06:15:00,
2013-04-12 02:20:00,42.5,28.3,30.15,East,90,2.7,4.7,57,0.00,,,0.00,WUHU216HW,2013-04-12 06:20:00,
2013-04-12 02:25:00,42.5,28.3,30.15,ENE,68,4.5,5.1,57,0.00,,,0.00,WUHU216HW,2013-04-12 06:25:00,
2013-04-12 02:30:00,42.5,27.8,30.15,NE,45,4.3,6.5,56,0.00,,,0.00,WUHU216HW,2013-04-12 06:30:00,
2013-04-12 02:35:00,42.3,27.2,30.15,NNE,23,5.8,11.4,55,0.00,,,0.00,WUHU216HW,2013-04-12 06:35:00,
2013-04-12 02:40:00,42.3,27.2,30.16,East,90,1.1,11.4,55,0.00,,,0.00,WUHU216HW,2013-04-12 06:40:00,
2013-04-12 02:45:00,42.3,27.6,30.16,NE,45,5.4,8.3,56,0.00,,,0.00,WUHU216HW,2013-04-12 06:45:00,
2013-04-12 02:50:00,42.1,27.0,30.16,NE,45,2.5,13.2,55,0.00,,,0.00,WUHU216HW,2013-04-12 06:50:00,
2013-04-12 02:55:00,42.1,27.5,30.16,North,0,3.6,13.2,56,0.00,,,0.00,WUHU216HW,2013-04-12 06:55:00,
2013-04-12 03:00:00,42.1,27.5,30.16,NE,45,2.7,8.9,56,0.00,,,0.00,WUHU216HW,2013-04-12 07:00:00,
2013-04-12 03:05:00,41.9,28.2,30.16,NNE,23,1.8,6.9,58,0.00,,,0.00,WUHU216HW,2013-04-12 07:05:00,
2013-04-12 03:10:00,41.8,28.9,30.16,North,0,3.8,10.5,60,0.00,,,0.00,WUHU216HW,2013-04-12 07:10:00,
2013-04-12 03:15:00,41.4,29.0,30.17,ENE,68,2.9,10.5,61,0.00,,,0.00,WUHU216HW,2013-04-12 07:15:00,
2013-04-12 03:20:00,41.4,29.7,30.16,NE,45,6.0,6.3,63,0.00,,,0.00,WUHU216HW,2013-04-12 07:20:00,
2013-04-12 03:25:00,41.0,30.2,30.17,NNE,23,4.7,11.6,65,0.00,,,0.00,WUHU216HW,2013-04-12 07:25:00,
2013-04-12 03:30:00,40.5,30.3,30.18,NNE,23,7.4,11.6,67,0.01,,,0.01,WUHU216HW,2013-04-12 07:30:00,
2013-04-12 03:35:00,40.0,31.0,30.18,North,0,3.8,9.8,70,0.01,,,0.01,WUHU216HW,2013-04-12 07:35:00,
2013-04-12 03:40:00,39.4,31.2,30.18,ENE,68,4.7,9.8,72,0.01,,,0.01,WUHU216HW,2013-04-12 07:40:00,
2013-04-12 03:45:00,39.1,31.4,30.18,ENE,68,2.2,8.9,74,0.01,,,0.01,WUHU216HW,2013-04-12 07:45:00,
2013-04-12 03:50:00,38.7,31.4,30.18,NE,45,4.3,8.5,75,0.01,,,0.01,WUHU216HW,2013-04-12 07:50:00,
2013-04-12 03:55:00,38.5,32.0,30.18,NNE,23,2.5,10.5,77,0.01,,,0.01,WUHU216HW,2013-04-12 07:55:00,
2013-04-12 04:00:00,38.2,31.2,30.18,North,0,4.7,10.5,76,0.02,,,0.02,WUHU216HW,2013-04-12 08:00:00,
2013-04-12 04:06:00,38.0,31.4,30.18,NE,45,4.7,7.4,77,0.02,,,0.02,WUHU216HW,2013-04-12 08:06:00,
2013-04-12 04:11:00,37.8,31.6,30.18,NNE,23,5.1,7.2,78,0.02,,,0.02,WUHU216HW,2013-04-12 08:11:00,
2013-04-12 04:16:00,37.8,31.6,30.18,NE,45,7.2,8.9,78,0.02,,,0.02,WUHU216HW,2013-04-12 08:16:00,
2013-04-12 04:20:00,37.4,31.5,30.18,NE,45,7.8,12.1,79,0.02,,,0.02,WUHU216HW,2013-04-12 08:20:00,
2013-04-12 04:25:00,37.3,31.7,30.18,North,0,3.6,12.8,80,0.02,,,0.02,WUHU216HW,2013-04-12 08:25:00,
2013-04-12 04:30:00,37.1,31.5,30.18,NNE,23,6.5,12.8,80,0.01,,,0.02,WUHU216HW,2013-04-12 08:30:00,
2013-04-12 04:35:00,37.1,31.5,30.19,NNE,23,7.6,11.9,80,0.01,,,0.02,WUHU216HW,2013-04-12 08:35:00,
2013-04-12 04:40:00,36.9,31.6,30.18,NE,45,2.0,8.5,81,0.01,,,0.02,WUHU216HW,2013-04-12 08:40:00,
2013-04-12 04:46:00,36.7,31.4,30.18,NE,45,4.5,8.7,81,0.01,,,0.02,WUHU216HW,2013-04-12 08:46:00,
2013-04-12 04:51:00,36.7,31.4,30.18,ENE,68,4.0,8.7,81,0.01,,,0.02,WUHU216HW,2013-04-12 08:51:00,
2013-04-12 04:56:00,36.5,31.5,30.18,ENE,68,3.6,4.7,82,0.00,,,0.02,WUHU216HW,2013-04-12 08:56:00,
2013-04-12 05:01:00,36.5,31.5,30.18,NE,45,4.7,9.2,82,0.00,,,0.02,WUHU216HW,2013-04-12 09:01:00,
2013-04-12 05:06:00,36.4,31.3,30.19,NE,45,2.5,9.2,82,0.00,,,0.02,WUHU216HW,2013-04-12 09:06:00,
2013-04-12 05:11:00,36.4,31.7,30.18,NE,45,4.7,9.2,83,0.00,,,0.02,WUHU216HW,2013-04-12 09:11:00,
2013-04-12 05:16:00,36.4,32.0,30.17,NE,45,3.4,8.7,84,0.01,,,0.03,WUHU216HW,2013-04-12 09:16:00,
2013-04-12 05:21:00,36.4,32.0,30.18,ENE,68,3.6,8.7,84,0.01,,,0.03,WUHU216HW,2013-04-12 09:21:00,
2013-04-12 05:26:00,36.4,32.0,30.18,ENE,68,2.9,6.5,84,0.01,,,0.03,WUHU216HW,2013-04-12 09:26:00,
2013-04-12 05:31:00,36.4,32.0,30.18,North,0,1.6,6.5,84,0.01,,,0.03,WUHU216HW,2013-04-12 09:31:00,
2013-04-12 05:36:00,36.2,31.8,30.18,NE,45,3.6,9.2,84,0.01,,,0.03,WUHU216HW,2013-04-12 09:36:00,
2013-04-12 05:41:00,36.2,31.8,30.19,NNW,338,1.8,9.2,84,0.01,,,0.03,WUHU216HW,2013-04-12 09:41:00,
2013-04-12 05:46:00,36.2,31.8,30.18,NE,45,3.1,5.4,84,0.01,,,0.03,WUHU216HW,2013-04-12 09:46:00,
2013-04-12 05:51:00,36.2,32.0,30.19,NE,45,2.2,5.4,85,0.01,,,0.03,WUHU216HW,2013-04-12 09:51:00,
2013-04-12 05:56:00,36.0,31.9,30.19,NE,45,2.2,12.3,85,0.02,,,0.04,WUHU216HW,2013-04-12 09:56:00,
2013-04-12 06:01:00,36.0,31.9,30.19,NNE,23,5.1,12.3,85,0.02,,,0.04,WUHU216HW,2013-04-12 10:01:00,
2013-04-12 06:06:00,36.0,31.9,30.19,NNE,23,2.5,8.1,85,0.02,,,0.04,WUHU216HW,2013-04-12 10:06:00,
2013-04-12 06:11:00,36.0,31.9,30.19,NNE,23,1.8,10.3,85,0.01,,,0.04,WUHU216HW,2013-04-12 10:11:00,
2013-04-12 06:16:00,36.0,31.6,30.19,NE,45,5.8,11.4,84,0.01,,,0.04,WUHU216HW,2013-04-12 10:16:00,
2013-04-12 06:21:00,35.8,31.4,30.19,ENE,68,1.1,11.4,84,0.01,,,0.04,WUHU216HW,2013-04-12 10:21:00,
2013-04-12 06:26:00,35.8,31.4,30.18,North,0,2.0,17.2,84,0.01,,,0.04,WUHU216HW,2013-04-12 10:26:00,
2013-04-12 06:31:00,35.8,31.4,30.19,NNE,23,3.4,17.2,84,0.01,,,0.04,WUHU216HW,2013-04-12 10:31:00,
2013-04-12 06:36:00,35.8,31.4,30.19,NE,45,1.6,10.1,84,0.01,,,0.04,WUHU216HW,2013-04-12 10:36:00,
2013-04-12 06:41:00,35.8,31.4,30.20,NE,45,5.6,6.5,84,0.01,,,0.04,WUHU216HW,2013-04-12 10:41:00,
2013-04-12 06:46:00,35.8,31.4,30.19,NE,45,4.3,8.5,84,0.01,,,0.04,WUHU216HW,2013-04-12 10:46:00,
2013-04-12 06:51:00,36.0,31.6,30.19,NE,45,4.3,8.5,84,0.00,,,0.04,WUHU216HW,2013-04-12 10:51:00,
2013-04-12 06:56:00,36.0,31.3,30.19,NNE,23,8.9,8.9,83,0.00,,,0.04,WUHU216HW,2013-04-12 10:56:00,
2013-04-12 07:01:00,36.0,31.0,30.19,NE,45,2.0,8.9,82,0.00,,,0.04,WUHU216HW,2013-04-12 11:01:00,
2013-04-12 07:06:00,36.0,31.0,30.20,NNE,23,5.8,9.8,82,0.00,,,0.04,WUHU216HW,2013-04-12 11:06:00,
2013-04-12 07:11:00,36.0,31.0,30.19,NE,45,6.9,10.7,82,0.00,,,0.04,WUHU216HW,2013-04-12 11:11:00,
2013-04-12 07:16:00,36.0,31.0,30.19,East,90,1.8,10.7,82,0.00,,,0.04,WUHU216HW,2013-04-12 11:16:00,
2013-04-12 07:21:00,36.2,31.1,30.19,North,0,4.0,9.2,82,0.00,,,0.04,WUHU216HW,2013-04-12 11:21:00,
2013-04-12 07:26:00,36.2,30.9,30.19,ENE,68,1.6,8.5,81,0.00,,,0.04,WUHU216HW,2013-04-12 11:26:00,
2013-04-12 07:31:00,36.4,31.1,30.18,NNE,23,0.9,8.5,81,0.00,,,0.04,WUHU216HW,2013-04-12 11:31:00,
2013-04-12 07:36:00,36.4,31.1,30.18,NNE,23,4.0,8.3,81,0.00,,,0.04,WUHU216HW,2013-04-12 11:36:00,
2013-04-12 07:41:00,36.5,31.0,30.18,NE,45,3.4,9.4,80,0.00,,,0.04,WUHU216HW,2013-04-12 11:41:00,
2013-04-12 07:46:00,36.7,31.1,30.18,NNE,23,9.2,9.4,80,0.00,,,0.04,WUHU216HW,2013-04-12 11:46:00,
2013-04-12 07:52:00,36.7,31.1,30.18,ENE,68,6.7,12.1,80,0.00,,,0.04,WUHU216HW,2013-04-12 11:52:00,
2013-04-12 07:57:00,36.9,31.3,30.18,SE,135,2.0,12.1,80,0.00,,,0.04,WUHU216HW,2013-04-12 11:57:00,
2013-04-12 08:02:00,37.1,30.5,30.18,East,90,4.0,8.9,77,0.00,,,0.04,WUHU216HW,2013-04-12 12:02:00,
2013-04-12 08:07:00,37.3,30.7,30.18,NE,45,1.1,7.6,77,0.00,,,0.04,WUHU216HW,2013-04-12 12:07:00,
2013-04-12 08:12:00,37.4,30.6,30.18,NNW,338,1.3,4.7,76,0.00,,,0.04,WUHU216HW,2013-04-12 12:12:00,
2013-04-12 08:17:00,37.4,30.6,30.17,ENE,68,2.9,6.0,76,0.00,,,0.04,WUHU216HW,2013-04-12 12:17:00,
2013-04-12 08:22:00,37.4,30.9,30.18,East,90,6.5,9.4,77,0.00,,,0.04,WUHU216HW,2013-04-12 12:22:00,
2013-04-12 08:27:00,37.6,30.4,30.18,East,90,6.0,9.4,75,0.00,,,0.04,WUHU216HW,2013-04-12 12:27:00,
2013-04-12 08:32:00,37.6,30.8,30.18,ESE,113,5.6,8.5,76,0.00,,,0.04,WUHU216HW,2013-04-12 12:32:00,
2013-04-12 08:37:00,37.8,30.9,30.17,ENE,68,1.1,8.5,76,0.00,,,0.04,WUHU216HW,2013-04-12 12:37:00,
2013-04-12 08:42:00,37.8,31.2,30.17,NNE,23,4.5,7.2,77,0.00,,,0.04,WUHU216HW,2013-04-12 12:42:00,
2013-04-12 08:47:00,37.8,30.9,30.17,NNE,23,4.0,6.9,76,0.00,,,0.04,WUHU216HW,2013-04-12 12:47:00,
2013-04-12 08:52:00,37.8,31.2,30.17,East,90,1.8,10.3,77,0.00,,,0.04,WUHU216HW,2013-04-12 12:52:00,
2013-04-12 08:57:00,38.0,31.4,30.17,NNE,23,4.7,10.3,77,0.00,,,0.04,WUHU216HW,2013-04-12 12:57:00,
2013-04-12 09:02:00,38.0,31.1,30.17,NE,45,2.0,7.6,76,0.00,,,0.04,WUHU216HW,2013-04-12 13:02:00,
2013-04-12 09:07:00,38.0,31.4,30.16,ENE,68,4.0,5.4,77,0.00,,,0.04,WUHU216HW,2013-04-12 13:07:00,
2013-04-12 09:12:00,38.2,31.2,30.16,SE,135,0.9,5.4,76,0.00,,,0.04,WUHU216HW,2013-04-12 13:12:00,
2013-04-12 09:17:00,38.3,31.4,30.13,East,90,4.0,8.5,76,0.00,,,0.04,WUHU216HW,2013-04-12 13:17:00,
2013-04-12 09:22:00,38.5,32.3,30.13,East,90,4.5,11.2,78,0.00,,,0.04,WUHU216HW,2013-04-12 13:22:00,
2013-04-12 09:27:00,39.1,32.1,30.17,ESE,113,1.1,11.2,76,0.00,,,0.04,WUHU216HW,2013-04-12 13:27:00,
2013-04-12 09:32:00,38.9,30.6,30.16,SSE,158,5.4,7.6,72,0.00,,,0.04,WUHU216HW,2013-04-12 13:32:00,
2013-04-12 09:37:00,38.7,30.4,30.16,NE,45,2.9,7.6,72,0.00,,,0.04,WUHU216HW,2013-04-12 13:37:00,
2013-04-12 09:42:00,38.5,30.2,30.16,North,0,6.7,6.9,72,0.00,,,0.04,WUHU216HW,2013-04-12 13:42:00,
2013-04-12 09:47:00,38.7,30.4,30.16,ESE,113,1.8,6.7,72,0.00,,,0.04,WUHU216HW,2013-04-12 13:47:00,
2013-04-12 09:52:00,38.7,30.1,30.15,East,90,4.0,6.3,71,0.00,,,0.04,WUHU216HW,2013-04-12 13:52:00,
2013-04-12 09:57:00,38.7,30.1,30.14,ENE,68,2.5,6.9,71,0.00,,,0.04,WUHU216HW,2013-04-12 13:57:00,
2013-04-12 10:02:00,38.5,29.6,30.13,East,90,4.0,6.9,70,0.00,,,0.04,WUHU216HW,2013-04-12 14:02:00,
2013-04-12 10:07:00,38.7,29.8,30.13,WSW,248,1.6,6.5,70,0.00,,,0.04,WUHU216HW,2013-04-12 14:07:00,
2013-04-12 10:12:00,38.9,29.9,30.12,SE,135,1.6,6.5,70,0.00,,,0.04,WUHU216HW,2013-04-12 14:12:00,
2013-04-12 10:17:00,39.1,30.4,30.12,NE,45,1.1,6.5,71,0.00,,,0.04,WUHU216HW,2013-04-12 14:17:00,
2013-04-12 10:22:00,39.2,29.9,30.11,NE,45,2.9,5.1,69,0.00,,,0.04,WUHU216HW,2013-04-12 14:22:00,
2013-04-12 10:27:00,39.2,29.9,30.12,NE,45,1.1,6.5,69,0.00,,,0.04,WUHU216HW,2013-04-12 14:27:00,
2013-04-12 10:32:00,39.1,29.4,30.12,ESE,113,2.9,6.5,68,0.00,,,0.04,WUHU216HW,2013-04-12 14:32:00,
2013-04-12 10:37:00,38.9,29.5,30.11,East,90,1.3,6.3,69,0.00,,,0.04,WUHU216HW,2013-04-12 14:37:00,
2013-04-12 10:42:00,38.9,29.2,30.11,SSE,158,3.1,6.0,68,0.00,,,0.04,WUHU216HW,2013-04-12 14:42:00,
2013-04-12 10:47:00,38.7,29.8,30.11,ESE,113,2.5,9.2,70,0.00,,,0.04,WUHU216HW,2013-04-12 14:47:00,
2013-04-12 10:52:00,38.5,30.6,30.10,ESE,113,3.1,9.2,73,0.00,,,0.04,WUHU216HW,2013-04-12 14:52:00,
2013-04-12 10:58:00,38.0,31.4,30.10,ESE,113,2.0,8.5,77,0.01,,,0.05,WUHU216HW,2013-04-12 14:58:00,
2013-04-12 11:03:00,37.8,31.6,30.10,ENE,68,2.9,8.5,78,0.01,,,0.05,WUHU216HW,2013-04-12 15:03:00,
2013-04-12 11:08:00,37.4,31.5,30.10,ESE,113,5.1,5.6,79,0.02,,,0.06,WUHU216HW,2013-04-12 15:08:00,
2013-04-12 11:13:00,37.3,32.0,30.09,ENE,68,1.8,5.6,81,0.02,,,0.06,WUHU216HW,2013-04-12 15:13:00,
2013-04-12 11:18:00,37.1,31.8,30.10,NNE,23,2.5,5.1,81,0.02,,,0.06,WUHU216HW,2013-04-12 15:18:00,
2013-04-12 11:22:00,37.1,31.8,30.09,East,90,2.5,4.3,81,0.03,,,0.07,WUHU216HW,2013-04-12 15:22:00,
2013-04-12 11:27:00,36.9,31.6,30.09,East,90,0.4,4.3,81,0.04,,,0.08,WUHU216HW,2013-04-12 15:27:00,
2013-04-12 11:33:00,36.9,32.8,30.10,SSE,158,3.1,5.4,85,0.05,,,0.09,WUHU216HW,2013-04-12 15:33:00,
2013-04-12 11:38:00,36.7,32.9,30.10,East,90,1.6,5.4,86,0.06,,,0.10,WUHU216HW,2013-04-12 15:38:00,
2013-04-12 11:43:00,36.7,33.1,30.10,ESE,113,2.5,3.1,87,0.07,,,0.11,WUHU216HW,2013-04-12 15:43:00,
2013-04-12 11:48:00,36.7,32.6,30.09,ENE,68,1.8,5.1,85,0.07,,,0.11,WUHU216HW,2013-04-12 15:48:00,
2013-04-12 11:53:00,36.5,32.9,30.10,SE,135,3.1,5.1,87,0.07,,,0.12,WUHU216HW,2013-04-12 15:53:00,
2013-04-12 11:58:00,36.7,32.9,30.09,ENE,68,1.8,3.8,86,0.07,,,0.12,WUHU216HW,2013-04-12 15:58:00,
2013-04-12 12:03:00,36.5,32.4,30.09,SSE,158,1.8,3.1,85,0.09,,,0.14,WUHU216HW,2013-04-12 16:03:00,
2013-04-12 12:08:00,36.4,32.8,30.08,NE,45,3.8,3.8,87,0.08,,,0.14,WUHU216HW,2013-04-12 16:08:00,
2013-04-12 12:13:00,36.4,32.5,30.08,East,90,1.1,4.7,86,0.10,,,0.16,WUHU216HW,2013-04-12 16:13:00,
2013-04-12 12:18:00,36.4,32.8,30.08,ENE,68,1.1,4.7,87,0.10,,,0.17,WUHU216HW,2013-04-12 16:18:00,
2013-04-12 12:23:00,36.4,32.8,30.09,NNE,23,0.4,4.5,87,0.10,,,0.18,WUHU216HW,2013-04-12 16:23:00,
2013-04-12 12:28:00,36.5,32.9,30.09,NE,45,0.7,4.5,87,0.10,,,0.18,WUHU216HW,2013-04-12 16:28:00,
2013-04-12 12:33:00,36.5,32.9,30.07,NE,45,2.2,3.8,87,0.10,,,0.19,WUHU216HW,2013-04-12 16:33:00,
2013-04-12 12:38:00,36.4,32.8,30.06,SSE,158,2.2,4.0,87,0.10,,,0.20,WUHU216HW,2013-04-12 16:38:00,
2013-04-12 12:43:00,36.4,33.1,30.08,NE,45,2.2,5.4,88,0.10,,,0.22,WUHU216HW,2013-04-12 16:43:00,
2013-04-12 12:48:00,36.2,33.0,30.06,ENE,68,3.4,5.4,88,0.10,,,0.22,WUHU216HW,2013-04-12 16:48:00,
2013-04-12 12:53:00,36.2,32.6,30.05,NE,45,2.9,3.8,87,0.12,,,0.24,WUHU216HW,2013-04-12 16:53:00,
2013-04-12 12:58:00,36.2,33.0,30.05,ENE,68,1.6,4.0,88,0.11,,,0.24,WUHU216HW,2013-04-12 16:58:00,
2013-04-12 13:03:00,36.2,33.2,30.06,NW,315,1.8,4.0,89,0.11,,,0.26,WUHU216HW,2013-04-12 17:03:00,
2013-04-12 13:08:00,36.4,33.4,30.08,East,90,2.5,5.1,89,0.11,,,0.26,WUHU216HW,2013-04-12 17:08:00,
2013-04-12 13:13:00,36.4,33.1,30.06,ENE,68,4.9,5.1,88,0.10,,,0.28,WUHU216HW,2013-04-12 17:13:00,
2013-04-12 13:18:00,36.2,33.2,30.05,East,90,0.7,6.9,89,0.10,,,0.29,WUHU216HW,2013-04-12 17:18:00,
2013-04-12 13:23:00,36.0,32.8,30.06,East,90,0.4,6.9,88,0.11,,,0.29,WUHU216HW,2013-04-12 17:23:00,
2013-04-12 13:28:00,36.0,32.8,30.07,NE,45,1.8,3.6,88,0.10,,,0.29,WUHU216HW,2013-04-12 17:28:00,
2013-04-12 13:33:00,35.8,32.9,30.06,East,90,1.6,3.1,89,0.09,,,0.29,WUHU216HW,2013-04-12 17:33:00,
2013-04-12 13:38:00,35.8,32.6,30.05,East,90,1.1,3.4,88,0.10,,,0.31,WUHU216HW,2013-04-12 17:38:00,
2013-04-12 13:43:00,35.8,32.6,30.05,East,90,1.1,3.4,88,0.09,,,0.31,WUHU216HW,2013-04-12 17:43:00,
2013-04-12 13:48:00,36.0,32.8,30.05,NE,45,4.0,4.0,88,0.08,,,0.31,WUHU216HW,2013-04-12 17:48:00,
2013-04-12 13:53:00,36.0,32.8,30.04,ENE,68,1.8,5.4,88,0.07,,,0.31,WUHU216HW,2013-04-12 17:53:00,
2013-04-12 13:59:00,36.2,33.0,30.03,ENE,68,1.3,5.4,88,0.06,,,0.31,WUHU216HW,2013-04-12 17:59:00,
2013-04-12 14:04:00,36.0,33.0,30.03,SE,135,2.2,4.7,89,0.06,,,0.33,WUHU216HW,2013-04-12 18:04:00,
2013-04-12 14:09:00,36.0,33.0,30.03,East,90,1.6,6.5,89,0.05,,,0.33,WUHU216HW,2013-04-12 18:09:00,
2013-04-12 14:14:00,36.2,33.5,30.03,SE,135,0.9,6.5,90,0.04,,,0.33,WUHU216HW,2013-04-12 18:14:00,
2013-04-12 14:20:00,36.4,33.4,30.03,East,90,1.8,2.7,89,0.04,,,0.33,WUHU216HW,2013-04-12 18:20:00,
2013-04-12 14:25:00,36.4,33.4,30.03,ENE,68,0.9,3.4,89,0.03,,,0.33,WUHU216HW,2013-04-12 18:25:00,
2013-04-12 14:30:00,36.5,33.8,30.03,East,90,1.6,5.8,90,0.04,,,0.33,WUHU216HW,2013-04-12 18:30:00,
2013-04-12 14:32:00,36.5,33.8,30.03,East,90,1.8,5.8,90,0.04,,,0.33,WUHU216HW,2013-04-12 18:32:00,
2013-04-12 14:34:00,36.5,33.8,30.03,East,90,1.1,5.8,90,0.04,,,0.33,WUHU216HW,2013-04-12 18:34:00,
2013-04-12 14:37:00,36.7,34.3,30.03,East,90,2.5,4.0,91,0.03,,,0.33,WUHU216HW,2013-04-12 18:37:00,
2013-04-12 14:38:00,36.7,34.3,30.03,ESE,113,1.1,4.0,91,0.03,,,0.33,WUHU216HW,2013-04-12 18:38:00,
2013-04-12 14:40:00,36.9,34.5,30.03,East,90,2.9,4.0,91,0.03,,,0.33,WUHU216HW,2013-04-12 18:40:00,
2013-04-12 14:42:00,36.7,34.3,30.03,ESE,113,1.6,4.5,91,0.04,,,0.35,WUHU216HW,2013-04-12 18:42:00,
2013-04-12 14:43:00,36.7,34.3,30.03,ENE,68,1.6,4.5,91,0.04,,,0.35,WUHU216HW,2013-04-12 18:43:00,
2013-04-12 14:47:00,36.9,34.5,30.02,East,90,1.1,4.5,91,0.03,,,0.35,WUHU216HW,2013-04-12 18:47:00,
2013-04-12 14:49:00,36.9,34.5,30.02,ENE,68,2.5,4.5,91,0.03,,,0.35,WUHU216HW,2013-04-12 18:49:00,
2013-04-12 14:50:00,36.9,34.2,30.01,ENE,68,2.2,4.5,90,0.03,,,0.35,WUHU216HW,2013-04-12 18:50:00,
2013-04-12 14:52:00,36.9,34.2,30.01,East,90,1.6,3.8,90,0.03,,,0.35,WUHU216HW,2013-04-12 18:52:00,
2013-04-12 14:53:00,36.9,34.5,30.01,East,90,5.8,5.8,91,0.03,,,0.35,WUHU216HW,2013-04-12 18:53:00,
2013-04-12 14:55:00,36.9,34.5,30.01,SSE,158,1.3,5.8,91,0.04,,,0.36,WUHU216HW,2013-04-12 18:55:00,
2013-04-12 14:56:00,36.9,34.5,30.00,ESE,113,2.5,5.8,91,0.04,,,0.36,WUHU216HW,2013-04-12 18:56:00,
2013-04-12 14:58:00,36.9,34.2,30.00,ENE,68,2.5,5.8,90,0.04,,,0.36,WUHU216HW,2013-04-12 18:58:00,
2013-04-12 14:59:00,36.9,34.5,30.00,NNE,23,1.6,5.8,91,0.04,,,0.36,WUHU216HW,2013-04-12 18:59:00,
2013-04-12 15:01:00,37.1,34.4,30.00,East,90,2.7,5.8,90,0.03,,,0.36,WUHU216HW,2013-04-12 19:01:00,
2013-04-12 15:02:00,37.3,34.6,30.00,ESE,113,2.9,5.8,90,0.03,,,0.36,WUHU216HW,2013-04-12 19:02:00,
2013-04-12 15:04:00,37.3,34.6,30.00,ESE,113,0.7,3.4,90,0.03,,,0.36,WUHU216HW,2013-04-12 19:04:00,
2013-04-12 15:05:00,37.1,34.4,30.00,East,90,1.1,3.4,90,0.04,,,0.37,WUHU216HW,2013-04-12 19:05:00,
2013-04-12 15:07:00,37.3,34.6,30.00,East,90,3.4,4.0,90,0.04,,,0.37,WUHU216HW,2013-04-12 19:07:00,
2013-04-12 15:08:00,37.3,34.6,30.00,ESE,113,1.6,4.0,90,0.04,,,0.37,WUHU216HW,2013-04-12 19:08:00,
2013-04-12 15:10:00,37.4,34.7,30.00,East,90,4.0,4.0,90,0.04,,,0.37,WUHU216HW,2013-04-12 19:10:00,
2013-04-12 15:11:00,37.3,34.6,30.00,ENE,68,2.5,4.0,90,0.04,,,0.37,WUHU216HW,2013-04-12 19:11:00,
2013-04-12 15:13:00,37.3,34.6,30.00,NW,315,1.8,4.0,90,0.04,,,0.37,WUHU216HW,2013-04-12 19:13:00,
2013-04-12 15:14:00,37.3,34.6,30.00,NE,45,2.7,4.0,90,0.04,,,0.37,WUHU216HW,2013-04-12 19:14:00,
2013-04-12 15:16:00,37.3,34.6,30.00,East,90,3.1,4.0,90,0.04,,,0.37,WUHU216HW,2013-04-12 19:16:00,
2013-04-12 15:26:00,37.1,34.4,29.99,NE,45,2.2,4.5,90,0.03,,,0.37,WUHU216HW,2013-04-12 19:26:00,
2013-04-12 15:31:00,37.3,34.6,29.99,ENE,68,3.8,4.3,90,0.03,,,0.37,WUHU216HW,2013-04-12 19:31:00,
2013-04-12 15:36:00,37.3,34.3,29.99,East,90,2.5,3.8,89,0.03,,,0.37,WUHU216HW,2013-04-12 19:36:00,
2013-04-12 15:41:00,37.3,34.6,29.98,East,90,1.1,6.7,90,0.03,,,0.38,WUHU216HW,2013-04-12 19:41:00,
2013-04-12 15:46:00,37.4,35.0,29.98,East,90,2.7,6.7,91,0.03,,,0.38,WUHU216HW,2013-04-12 19:46:00,
2013-04-12 15:51:00,37.4,34.7,29.98,SE,135,3.4,6.3,90,0.03,,,0.38,WUHU216HW,2013-04-12 19:51:00,
2013-04-12 15:56:00,37.4,34.7,29.97,East,90,1.8,6.9,90,0.02,,,0.38,WUHU216HW,2013-04-12 19:56:00,
2013-04-12 16:02:00,37.4,34.7,29.97,ESE,113,1.1,7.8,90,0.02,,,0.38,WUHU216HW,2013-04-12 20:02:00,
2013-04-12 16:07:00,37.6,34.9,29.97,NE,45,2.9,7.8,90,0.01,,,0.38,WUHU216HW,2013-04-12 20:07:00,
2013-04-12 16:12:00,37.4,34.7,29.96,East,90,2.9,6.9,90,0.01,,,0.38,WUHU216HW,2013-04-12 20:12:00,
2013-04-12 16:17:00,37.4,34.5,29.96,NE,45,3.4,6.9,89,0.01,,,0.38,WUHU216HW,2013-04-12 20:17:00,
2013-04-12 16:22:00,37.4,34.7,29.96,East,90,2.2,6.5,90,0.01,,,0.38,WUHU216HW,2013-04-12 20:22:00,
2013-04-12 16:27:00,37.4,34.7,29.95,NE,45,2.2,5.4,90,0.01,,,0.38,WUHU216HW,2013-04-12 20:27:00,
2013-04-12 16:32:00,37.3,34.3,29.95,NE,45,2.0,6.7,89,0.01,,,0.38,WUHU216HW,2013-04-12 20:32:00,
2013-04-12 16:37:00,37.4,34.5,29.95,NNE,23,2.5,6.7,89,0.00,,,0.38,WUHU216HW,2013-04-12 20:37:00,
2013-04-12 16:42:00,37.3,34.3,29.95,SE,135,2.7,4.7,89,0.00,,,0.38,WUHU216HW,2013-04-12 20:42:00,
2013-04-12 16:47:00,37.3,34.6,29.95,ENE,68,1.6,4.7,90,0.00,,,0.38,WUHU216HW,2013-04-12 20:47:00,
2013-04-12 16:52:00,37.4,34.5,29.95,ENE,68,2.9,3.8,89,0.00,,,0.38,WUHU216HW,2013-04-12 20:52:00,
2013-04-12 16:57:00,37.4,34.5,29.95,NNE,23,6.7,6.7,89,0.00,,,0.38,WUHU216HW,2013-04-12 20:57:00,
2013-04-12 17:02:00,37.3,34.3,29.95,East,90,3.4,6.7,89,0.01,,,0.39,WUHU216HW,2013-04-12 21:02:00,
2013-04-12 17:07:00,37.3,34.6,29.95,ENE,68,4.3,6.7,90,0.01,,,0.39,WUHU216HW,2013-04-12 21:07:00,
2013-04-12 17:12:00,37.4,35.0,29.95,ESE,113,1.8,6.5,91,0.01,,,0.39,WUHU216HW,2013-04-12 21:12:00,
2013-04-12 17:17:00,37.4,34.7,29.95,ENE,68,1.8,5.8,90,0.01,,,0.39,WUHU216HW,2013-04-12 21:17:00,
2013-04-12 17:22:00,37.3,34.6,29.94,NE,45,1.1,4.7,90,0.01,,,0.39,WUHU216HW,2013-04-12 21:22:00,
2013-04-12 17:27:00,37.1,34.4,29.94,NNE,23,0.9,6.0,90,0.01,,,0.39,WUHU216HW,2013-04-12 21:27:00,
2013-04-12 17:32:00,37.1,34.4,29.94,NE,45,6.5,6.5,90,0.01,,,0.39,WUHU216HW,2013-04-12 21:32:00,
2013-04-12 17:37:00,37.1,34.4,29.94,NE,45,4.0,7.2,90,0.01,,,0.39,WUHU216HW,2013-04-12 21:37:00,
2013-04-12 17:42:00,36.9,34.2,29.94,NE,45,2.5,10.1,90,0.01,,,0.39,WUHU216HW,2013-04-12 21:42:00,
2013-04-12 17:47:00,36.9,34.2,29.94,ENE,68,1.1,10.1,90,0.01,,,0.39,WUHU216HW,2013-04-12 21:47:00,
2013-04-12 17:52:00,36.9,34.2,29.93,NE,45,2.5,6.9,90,0.01,,,0.39,WUHU216HW,2013-04-12 21:52:00,
2013-04-12 17:57:00,36.9,34.2,29.93,ENE,68,5.4,5.8,90,0.00,,,0.39,WUHU216HW,2013-04-12 21:57:00,
2013-04-12 18:02:00,36.9,34.2,29.93,NNE,23,2.2,9.2,90,0.00,,,0.39,WUHU216HW,2013-04-12 22:02:00,
2013-04-12 18:07:00,36.9,34.5,29.93,NE,45,1.3,9.2,91,0.01,,,0.40,WUHU216HW,2013-04-12 22:07:00,
2013-04-12 18:12:00,36.7,34.3,29.92,ENE,68,1.8,9.2,91,0.01,,,0.40,WUHU216HW,2013-04-12 22:12:00,
2013-04-12 18:17:00,36.7,34.3,29.92,NNE,23,6.5,9.2,91,0.01,,,0.40,WUHU216HW,2013-04-12 22:17:00,
2013-04-12 18:22:00,36.7,34.3,29.92,NE,45,2.5,7.2,91,0.01,,,0.40,WUHU216HW,2013-04-12 22:22:00,
2013-04-12 18:27:00,36.7,34.3,29.92,SSE,158,6.5,11.2,91,0.01,,,0.40,WUHU216HW,2013-04-12 22:27:00,
2013-04-12 18:32:00,36.7,34.3,29.92,NNE,23,8.1,11.2,91,0.01,,,0.40,WUHU216HW,2013-04-12 22:32:00,
2013-04-12 18:37:00,36.5,34.1,29.91,NE,45,4.0,8.5,91,0.01,,,0.40,WUHU216HW,2013-04-12 22:37:00,
2013-04-12 18:42:00,36.7,34.3,29.91,NNE,23,2.9,8.1,91,0.01,,,0.40,WUHU216HW,2013-04-12 22:42:00,
2013-04-12 18:47:00,36.7,34.3,29.90,NNE,23,10.5,10.5,91,0.01,,,0.40,WUHU216HW,2013-04-12 22:47:00,
2013-04-12 18:52:00,36.5,34.4,29.90,NNE,23,2.7,10.5,92,0.01,,,0.40,WUHU216HW,2013-04-12 22:52:00,
2013-04-12 18:57:00,36.5,34.4,29.90,ENE,68,3.1,10.5,92,0.01,,,0.40,WUHU216HW,2013-04-12 22:57:00,
2013-04-12 19:02:00,36.7,34.6,29.91,ENE,68,4.0,9.8,92,0.01,,,0.40,WUHU216HW,2013-04-12 23:02:00,
2013-04-12 19:07:00,36.7,34.6,29.90,NNE,23,4.3,9.8,92,0.00,,,0.40,WUHU216HW,2013-04-12 23:07:00,
2013-04-12 19:12:00,36.7,34.6,29.90,ENE,68,4.0,7.6,92,0.00,,,0.40,WUHU216HW,2013-04-12 23:12:00,
2013-04-12 19:17:00,36.7,34.6,29.90,ENE,68,2.2,8.7,92,0.00,,,0.40,WUHU216HW,2013-04-12 23:17:00,
2013-04-12 19:22:00,36.9,34.7,29.89,NE,45,3.4,10.7,92,0.00,,,0.40,WUHU216HW,2013-04-12 23:22:00,
2013-04-12 19:27:00,36.9,34.7,29.89,NE,45,4.3,10.7,92,0.00,,,0.40,WUHU216HW,2013-04-12 23:27:00,
2013-04-12 19:32:00,37.1,34.9,29.88,ENE,68,1.8,5.1,92,0.00,,,0.40,WUHU216HW,2013-04-12 23:32:00,
2013-04-12 19:37:00,37.1,34.9,29.88,NE,45,1.8,8.7,92,0.00,,,0.40,WUHU216HW,2013-04-12 23:37:00,
2013-04-12 19:42:00,37.1,34.9,29.88,NNE,23,6.3,8.7,92,0.00,,,0.40,WUHU216HW,2013-04-12 23:42:00,
2013-04-12 19:47:00,37.1,34.9,29.88,NNE,23,1.8,6.5,92,0.00,,,0.40,WUHU216HW,2013-04-12 23:47:00,
2013-04-12 19:52:00,37.1,34.9,29.88,NNE,23,4.0,6.5,92,0.01,,,0.41,WUHU216HW,2013-04-12 23:52:00,
2013-04-12 19:57:00,37.3,35.1,29.88,NE,45,6.7,8.1,92,0.01,,,0.41,WUHU216HW,2013-04-12 23:57:00,
2013-04-12 20:02:00,37.3,35.1,29.88,NNE,23,3.4,9.2,92,0.01,,,0.41,WUHU216HW,2013-04-13 00:02:00,
2013-04-12 20:07:00,37.3,35.1,29.88,NNE,23,11.0,11.0,92,0.01,,,0.41,WUHU216HW,2013-04-13 00:07:00,
2013-04-12 20:12:00,37.1,34.9,29.88,NNW,338,3.4,12.1,92,0.01,,,0.41,WUHU216HW,2013-04-13 00:12:00,
2013-04-12 20:17:00,37.1,34.9,29.88,NNE,23,3.4,12.1,92,0.01,,,0.41,WUHU216HW,2013-04-13 00:17:00,
2013-04-12 20:22:00,37.1,34.9,29.88,NNE,23,6.9,11.4,92,0.01,,,0.41,WUHU216HW,2013-04-13 00:22:00,
2013-04-12 20:27:00,37.1,34.9,29.88,NNW,338,2.5,7.2,92,0.01,,,0.41,WUHU216HW,2013-04-13 00:27:00,
2013-04-12 20:32:00,37.1,34.9,29.88,NE,45,6.0,7.6,92,0.01,,,0.41,WUHU216HW,2013-04-13 00:32:00,
2013-04-12 20:37:00,37.1,34.9,29.88,NNE,23,3.1,8.3,92,0.01,,,0.41,WUHU216HW,2013-04-13 00:37:00,
2013-04-12 20:42:00,37.1,34.9,29.88,NE,45,2.0,8.3,92,0.01,,,0.41,WUHU216HW,2013-04-13 00:42:00,
2013-04-12 20:47:00,37.1,34.9,29.88,NNE,23,8.5,9.8,92,0.01,,,0.41,WUHU216HW,2013-04-13 00:47:00,
2013-04-12 20:52:00,37.1,34.9,29.88,NE,45,4.9,9.8,92,0.00,,,0.41,WUHU216HW,2013-04-13 00:52:00,
2013-04-12 20:57:00,37.1,34.9,29.89,NNE,23,6.3,10.5,92,0.00,,,0.41,WUHU216HW,2013-04-13 00:57:00,
2013-04-12 21:02:00,37.1,34.9,29.88,NNE,23,6.3,10.5,92,0.01,,,0.42,WUHU216HW,2013-04-13 01:02:00,
2013-04-12 21:07:00,37.3,35.1,29.87,NE,45,3.8,9.2,92,0.01,,,0.42,WUHU216HW,2013-04-13 01:07:00,
2013-04-12 21:12:00,37.3,35.1,29.87,NE,45,6.0,11.6,92,0.01,,,0.42,WUHU216HW,2013-04-13 01:12:00,
2013-04-12 21:17:00,37.3,35.1,29.87,NNE,23,8.1,11.6,92,0.01,,,0.42,WUHU216HW,2013-04-13 01:17:00,
2013-04-12 21:22:00,37.3,35.1,29.87,NNE,23,6.9,10.7,92,0.01,,,0.42,WUHU216HW,2013-04-13 01:22:00,
2013-04-12 21:27:00,37.3,35.1,29.87,NE,45,5.8,10.7,92,0.01,,,0.42,WUHU216HW,2013-04-13 01:27:00,
2013-04-12 21:32:00,37.3,35.1,29.87,NE,45,11.4,11.4,92,0.01,,,0.42,WUHU216HW,2013-04-13 01:32:00,
2013-04-12 21:37:00,37.3,35.1,29.87,NNW,338,4.0,11.4,92,0.01,,,0.42,WUHU216HW,2013-04-13 01:37:00,
2013-04-12 21:42:00,37.3,35.1,29.87,North,0,2.5,11.4,92,0.01,,,0.42,WUHU216HW,2013-04-13 01:42:00,
2013-04-12 21:47:00,37.3,35.1,29.86,NNE,23,7.6,7.6,92,0.01,,,0.42,WUHU216HW,2013-04-13 01:47:00,
2013-04-12 21:52:00,37.4,35.3,29.85,North,0,2.7,8.5,92,0.01,,,0.42,WUHU216HW,2013-04-13 01:52:00,
2013-04-12 21:57:00,37.3,35.1,29.86,North,0,0.7,11.0,92,0.00,,,0.42,WUHU216HW,2013-04-13 01:57:00,
2013-04-12 22:02:00,37.3,35.1,29.85,NNE,23,4.0,11.0,92,0.00,,,0.42,WUHU216HW,2013-04-13 02:02:00,
2013-04-12 22:07:00,37.4,35.3,29.85,NE,45,4.3,14.5,92,0.00,,,0.42,WUHU216HW,2013-04-13 02:07:00,
2013-04-12 22:12:00,37.4,35.3,29.85,NE,45,4.3,14.5,92,0.00,,,0.42,WUHU216HW,2013-04-13 02:12:00,
2013-04-12 22:17:00,37.4,35.3,29.86,NNE,23,4.0,7.6,92,0.00,,,0.42,WUHU216HW,2013-04-13 02:17:00,
2013-04-12 22:22:00,37.4,35.3,29.86,North,0,3.1,7.6,92,0.00,,,0.42,WUHU216HW,2013-04-13 02:22:00,
2013-04-12 22:27:00,37.6,35.5,29.85,NNE,23,2.9,8.5,92,0.00,,,0.42,WUHU216HW,2013-04-13 02:27:00,
2013-04-12 22:32:00,37.6,35.5,29.85,North,0,4.0,8.5,92,0.00,,,0.42,WUHU216HW,2013-04-13 02:32:00,
2013-04-12 22:37:00,37.6,35.5,29.85,North,0,4.5,10.5,92,0.00,,,0.42,WUHU216HW,2013-04-13 02:37:00,
2013-04-12 22:42:00,37.6,35.5,29.85,North,0,1.3,10.7,92,0.00,,,0.42,WUHU216HW,2013-04-13 02:42:00,
2013-04-12 22:47:00,37.6,35.5,29.85,NNE,23,3.4,10.7,92,0.00,,,0.42,WUHU216HW,2013-04-13 02:47:00,
2013-04-12 22:53:00,37.8,35.6,29.84,NE,45,6.9,8.5,92,0.00,,,0.42,WUHU216HW,2013-04-13 02:53:00,
2013-04-12 22:58:00,37.8,35.6,29.83,NNE,23,2.5,9.4,92,0.00,,,0.42,WUHU216HW,2013-04-13 02:58:00,
2013-04-12 23:03:00,37.8,35.6,29.83,NNE,23,2.0,10.7,92,0.00,,,0.42,WUHU216HW,2013-04-13 03:03:00,
2013-04-12 23:08:00,37.8,35.6,29.83,NNE,23,3.8,10.7,92,0.00,,,0.42,WUHU216HW,2013-04-13 03:08:00,
2013-04-12 23:13:00,37.8,35.6,29.83,NE,45,11.0,11.0,92,0.00,,,0.42,WUHU216HW,2013-04-13 03:13:00,
2013-04-12 23:18:00,37.8,35.6,29.84,NNE,23,7.2,12.1,92,0.00,,,0.42,WUHU216HW,2013-04-13 03:18:00,
2013-04-12 23:23:00,37.8,35.6,29.84,NNE,23,6.3,12.1,92,0.00,,,0.42,WUHU216HW,2013-04-13 03:23:00,
2013-04-12 23:28:00,37.8,35.6,29.83,ENE,68,0.7,11.9,92,0.00,,,0.42,WUHU216HW,2013-04-13 03:28:00,
2013-04-12 23:33:00,37.8,35.6,29.83,NNE,23,7.6,11.9,92,0.00,,,0.42,WUHU216HW,2013-04-13 03:33:00,
2013-04-12 23:38:00,37.8,35.6,29.82,NNW,338,3.4,11.6,92,0.00,,,0.42,WUHU216HW,2013-04-13 03:38:00,
2013-04-12 23:43:00,37.8,35.9,29.83,North,0,2.5,10.5,93,0.00,,,0.42,WUHU216HW,2013-04-13 03:43:00,
2013-04-12 23:48:00,37.8,35.6,29.83,North,0,4.9,8.1,92,0.00,,,0.42,WUHU216HW,2013-04-13 03:48:00,
2013-04-12 23:53:00,37.8,35.6,29.83,NE,45,2.9,8.5,92,0.00,,,0.42,WUHU216HW,2013-04-13 03:53:00,
2013-04-12 23:58:00,37.8,35.6,29.83,NE,45,11.4,11.4,92,0.00,,,0.42,WUHU216HW,2013-04-13 03:58:00,